Time;durP1;ratioP1;P1;durP2;ratioP2;P2;SDS_P1;SDS_P2;PMS_P1;PMS_P2;Temp;Humidity;BMP_temperature;BMP_pressure;BME280_temperature;BME280_humidity;BME280_pressure;Samples;Min_cycle;Max_cycle;Signal;HPM_P1;HPM_P2
2021/07/11 00:02:08;;;;;;;5.23;3.60;;;;;;;27.94;48.88;100756.78;127665;1090;64131;-85
2021/07/11 00:04:34;;;;;;;5.53;3.67;;;;;;;27.93;49.19;100755.10;127695;1090;64137;-86
2021/07/11 00:07:03;;;;;;;5.30;3.60;;;;;;;27.93;49.16;100755.94;127694;1090;64150;-85
2021/07/11 00:09:31;;;;;;;4.53;3.40;;;;;;;27.93;49.16;100750.52;127696;1090;64220;-85
2021/07/11 00:12:03;;;;;;;5.20;3.93;;;;;;;27.93;48.98;100752.39;127728;1090;64122;-86
2021/07/11 00:14:30;;;;;;;4.43;3.27;;;;;;;27.93;49.14;100752.39;127661;1090;64169;-86
2021/07/11 00:17:05;;;;;;;4.30;3.37;;;;;;;27.93;49.24;100746.97;127706;1090;64198;-85
2021/07/11 00:19:33;;;;;;;4.30;3.50;;;;;;;27.93;49.11;100746.97;127720;1090;64109;-85
2021/07/11 00:22:01;;;;;;;5.10;3.60;;;;;;;27.92;48.91;100750.68;127799;1090;64147;-86
2021/07/11 00:24:38;;;;;;;;;;;;;;;;;;;;;
2021/07/11 00:27:06;;;;;;;5.17;3.80;;;;;;;27.91;48.88;100749.80;127896;1090;64279;-86
2021/07/11 00:29:58;;;;;;;5.47;3.73;;;;;;;27.91;49.00;100749.80;127932;1090;64144;-85
2021/07/11 00:32:28;;;;;;;5.00;3.33;;;;;;;27.91;49.06;100747.09;127833;1089;64333;-85
2021/07/11 00:34:55;;;;;;;5.43;3.47;;;;;;;27.92;49.19;100742.54;127913;1087;64280;-86
2021/07/11 00:37:29;;;;;;;5.10;3.70;;;;;;;27.92;49.16;100742.54;127908;1087;64246;-85
2021/07/11 00:39:58;;;;;;;4.80;3.67;;;;;;;27.92;49.07;100742.54;127898;1087;64134;-86
2021/07/11 00:42:25;;;;;;;5.60;3.73;;;;;;;27.91;49.24;100744.38;127901;1087;64237;-85
2021/07/11 00:45:04;;;;;;;4.80;3.60;;;;;;;27.91;49.02;100741.67;127906;1088;64146;-85
2021/07/11 00:47:32;;;;;;;5.00;3.50;;;;;;;27.91;49.12;100741.67;127921;1087;64242;-85
2021/07/11 00:49:58;;;;;;;5.60;3.63;;;;;;;27.91;49.16;100733.53;127965;1087;64140;-86
2021/07/11 00:52:24;;;;;;;4.40;3.40;;;;;;;27.91;48.95;100735.41;127917;1087;64316;-86
2021/07/11 00:54:51;;;;;;;4.20;3.40;;;;;;;27.91;49.05;100733.53;127934;1087;64138;-86
2021/07/11 00:57:23;;;;;;;5.20;3.70;;;;;;;27.91;49.31;100732.69;127917;1087;64121;-86
2021/07/11 00:59:49;;;;;;;5.53;3.70;;;;;;;27.90;49.26;100731.84;127950;1087;64144;-87
2021/07/11 01:03:00;;;;;;;5.47;3.40;;;;;;;27.90;49.11;100723.71;127939;1087;64147;-85
2021/07/11 01:05:26;;;;;;;5.57;3.67;;;;;;;27.91;49.12;100721.84;127891;1087;64099;-85
2021/07/11 01:08:11;;;;;;;4.90;3.47;;;;;;;27.91;49.09;100719.13;127911;1087;64243;-85
2021/07/11 01:10:49;;;;;;;5.47;3.60;;;;;;;27.90;49.27;100726.42;128299;1087;64160;-85
2021/07/11 01:13:21;;;;;;;5.23;3.57;;;;;;;27.90;49.40;100722.84;128377;1086;64099;-85
2021/07/11 01:16:04;;;;;;;4.40;3.50;;;;;;;27.90;49.37;100714.70;128007;1087;64291;-85
2021/07/11 01:18:39;;;;;;;4.60;3.40;;;;;;;27.90;48.91;100711.98;128385;1086;63980;-85
2021/07/11 01:21:14;;;;;;;5.33;3.43;;;;;;;27.90;49.29;100711.98;128412;1086;64146;-86
2021/07/11 01:24:07;;;;;;;5.20;3.63;;;;;;;27.89;49.42;100715.70;128352;1087;64131;-86
2021/07/11 01:26:39;;;;;;;5.27;3.80;;;;;;;27.89;49.20;100718.41;128359;1087;64250;-85
2021/07/11 01:29:06;;;;;;;5.10;3.60;;;;;;;27.88;49.42;100709.44;128416;1087;64121;-86
2021/07/11 01:31:34;;;;;;;5.20;3.87;;;;;;;27.89;49.41;100718.41;128387;1087;64626;-86
2021/07/11 01:34:00;;;;;;;5.20;3.57;;;;;;;27.88;49.11;100711.31;128374;1087;64366;-86
2021/07/11 01:36:36;;;;;;;5.33;3.60;;;;;;;27.89;49.42;100715.70;128346;1087;64160;-85
2021/07/11 01:39:11;;;;;;;4.63;3.47;;;;;;;27.88;49.33;100720.29;128417;1086;64278;-85
2021/07/11 01:41:38;;;;;;;5.80;3.50;;;;;;;27.88;49.36;100714.86;128395;1087;64156;-85
2021/07/11 01:44:05;;;;;;;5.35;4.10;;;;;;;27.88;49.49;100725.72;128355;1087;64176;-85
2021/07/11 01:46:31;;;;;;;4.20;3.57;;;;;;;27.88;49.29;100709.44;128337;1086;64186;-84
2021/07/11 01:48:59;;;;;;;5.00;3.67;;;;;;;27.87;49.32;100709.59;128385;1087;64128;-84
2021/07/11 01:51:26;;;;;;;6.30;4.10;;;;;;;27.87;49.32;100720.45;128414;1087;64147;-84
2021/07/11 01:54:00;;;;;;;5.33;3.80;;;;;;;27.88;49.33;100714.03;128353;1087;64095;-85
2021/07/11 01:56:28;;;;;;;4.97;3.73;;;;;;;27.88;49.33;100716.73;128339;1087;64249;-86
2021/07/11 01:59:14;;;;;;;5.33;3.90;;;;;;;27.88;49.41;100719.45;128346;1087;64131;-85
2021/07/11 02:01:44;;;;;;;5.00;3.63;;;;;;;27.87;49.29;100718.58;128400;1086;64128;-85
2021/07/11 02:04:13;;;;;;;5.97;4.07;;;;;;;27.87;49.38;100712.31;128373;1087;64868;-86
2021/07/11 02:06:49;;;;;;;4.97;3.70;;;;;;;27.87;49.49;100715.86;128332;1087;64193;-85
2021/07/11 02:09:36;;;;;;;4.97;3.60;;;;;;;27.87;49.64;100717.73;128384;1086;64272;-86
2021/07/11 02:12:11;;;;;;;5.67;3.80;;;;;;;27.87;49.43;100729.42;128395;1086;64204;-85
2021/07/11 02:14:49;;;;;;;5.07;3.60;;;;;;;27.86;49.25;100714.19;128362;1087;64246;-85
2021/07/11 02:17:20;;;;;;;5.73;3.80;;;;;;;27.86;49.52;100722.33;128378;1087;64138;-85
2021/07/11 02:19:46;;;;;;;5.00;3.40;;;;;;;27.86;49.64;100711.47;128381;1087;64131;-85
2021/07/11 02:22:24;;;;;;;5.43;3.77;;;;;;;27.86;49.57;100726.88;128385;1087;64180;-85
2021/07/11 02:24:51;;;;;;;4.55;3.50;;;;;;;27.86;49.60;100724.16;128385;1084;64299;-85
2021/07/11 02:27:23;;;;;;;4.70;3.70;;;;;;;27.85;49.48;100715.19;128358;1087;64178;-85
2021/07/11 02:30:06;;;;;;;4.40;3.70;;;;;;;27.86;49.58;100724.16;128376;1085;64313;-86
2021/07/11 02:32:42;;;;;;;5.50;3.70;;;;;;;27.85;49.51;100726.03;128394;1087;64096;-85
2021/07/11 02:35:10;;;;;;;5.53;3.73;;;;;;;27.85;49.38;100717.90;128396;1085;64114;-85
2021/07/11 02:37:36;;;;;;;4.95;3.70;;;;;;;27.85;49.20;100726.03;128376;1087;64218;-85
2021/07/11 02:40:15;;;;;;;6.23;3.80;;;;;;;27.85;49.46;100728.75;128380;1085;64101;-85
2021/07/11 02:42:41;;;;;;;5.45;3.70;;;;;;;27.85;49.34;100733.30;128409;1087;64211;-86
2021/07/11 02:45:15;;;;;;;5.30;3.70;;;;;;;27.86;49.49;100735.02;128356;1087;64093;-85
2021/07/11 02:47:44;;;;;;;5.00;3.70;;;;;;;27.85;49.60;100730.59;128363;1086;64125;-85
2021/07/11 02:50:13;;;;;;;4.58;3.73;;;;;;;27.85;49.33;100736.02;128382;1086;64170;-85
2021/07/11 02:52:42;;;;;;;5.65;3.80;;;;;;;27.84;49.45;100735.17;128380;1087;64185;-85
2021/07/11 02:55:23;;;;;;;4.10;3.53;;;;;;;27.84;49.40;100732.46;128374;1087;64151;-85
2021/07/11 02:58:05;;;;;;;5.17;3.63;;;;;;;27.85;49.38;100736.89;128405;1087;64137;-85
2021/07/11 03:00:32;;;;;;;5.17;3.57;;;;;;;27.85;49.51;100746.87;128343;1087;64211;-86
2021/07/11 03:03:10;;;;;;;6.13;4.03;;;;;;;27.84;49.38;100753.33;128404;1087;64111;-86
2021/07/11 03:05:54;;;;;;;4.73;3.68;;;;;;;27.85;49.66;100755.00;128380;1085;64166;-86
2021/07/11 03:08:21;;;;;;;5.30;3.83;;;;;;;27.84;49.23;100751.45;128393;1087;64515;-85
2021/07/11 03:10:56;;;;;;;4.90;3.80;;;;;;;27.84;49.65;100756.88;128378;1087;62177;-84
2021/07/11 03:13:34;;;;;;;5.10;3.67;;;;;;;27.84;49.43;100765.02;128356;1085;62616;-85
2021/07/11 03:16:08;;;;;;;5.00;3.93;;;;;;;27.84;49.86;100765.02;128365;1087;64127;-84
2021/07/11 03:18:36;;;;;;;4.63;3.90;;;;;;;27.84;49.50;100765.02;128358;1087;64135;-85
2021/07/11 03:21:03;;;;;;;5.00;4.00;;;;;;;27.84;49.55;100770.44;128385;1085;64130;-86
2021/07/11 03:23:38;;;;;;;5.33;3.83;;;;;;;27.85;49.61;100768.56;128373;1087;64135;-85
2021/07/11 03:26:08;;;;;;;5.17;3.77;;;;;;;27.85;49.70;100768.56;128336;1087;64277;-85
2021/07/11 03:28:56;;;;;;;5.50;3.90;;;;;;;27.85;49.50;100765.86;128365;1087;64218;-86
2021/07/11 03:31:36;;;;;;;5.00;3.55;;;;;;;27.86;49.49;100770.28;128377;1087;64147;-85
2021/07/11 03:34:07;;;;;;;5.27;3.90;;;;;;;27.85;49.71;100764.02;128376;1087;64111;-86
2021/07/11 03:36:38;;;;;;;5.20;3.60;;;;;;;27.85;49.61;100768.56;128377;1087;64096;-85
2021/07/11 03:39:05;;;;;;;5.03;3.50;;;;;;;27.85;49.66;100768.56;128359;1086;64096;-85
2021/07/11 03:41:38;;;;;;;5.23;4.00;;;;;;;27.86;49.62;100770.28;128369;1085;64139;-85
2021/07/11 03:44:27;;;;;;;5.00;3.57;;;;;;;27.85;49.51;100764.02;128420;1084;64195;-85
2021/07/11 03:47:05;;;;;;;4.77;3.50;;;;;;;27.86;49.33;100770.28;128371;1086;64156;-86
2021/07/11 03:49:41;;;;;;;5.55;3.63;;;;;;;27.85;49.64;100766.73;128394;1087;64137;-86
2021/07/11 03:52:16;;;;;;;5.30;3.80;;;;;;;27.85;49.71;100771.28;128397;1087;64102;-85
2021/07/11 03:54:46;;;;;;;4.93;3.50;;;;;;;27.85;49.56;100768.56;128401;1086;64292;-85
2021/07/11 03:57:25;;;;;;;;;;;;;;;;;;;;;
2021/07/11 04:00:06;;;;;;;4.35;3.30;;;;;;;27.84;49.61;100767.73;128343;1087;64153;-86
2021/07/11 04:02:34;;;;;;;4.97;3.60;;;;;;;27.85;49.51;100769.44;128372;1087;64095;-84
2021/07/11 04:05:03;;;;;;;5.30;3.50;;;;;;;27.86;49.63;100767.56;128400;1086;64160;-85
2021/07/11 04:07:33;;;;;;;4.83;3.73;;;;;;;27.85;49.68;100761.30;128362;1087;64105;-85
2021/07/11 04:10:00;;;;;;;4.80;3.90;;;;;;;27.86;49.60;100767.56;128397;1087;65334;-85
2021/07/11 04:12:34;;;;;;;5.07;3.47;;;;;;;27.86;49.64;100765.73;128366;1087;64131;-86
2021/07/11 04:15:04;;;;;;;5.67;3.63;;;;;;;27.85;49.64;100766.73;128413;1086;65292;-85
2021/07/11 04:17:31;;;;;;;4.63;3.50;;;;;;;27.86;49.62;100767.56;128379;1086;64134;-86
2021/07/11 04:20:26;;;;;;;4.90;3.70;;;;;;;27.86;49.39;100760.30;128392;1087;64160;-86
2021/07/11 04:22:54;;;;;;;5.60;3.70;;;;;;;27.87;49.44;100769.28;128134;1087;64212;-86
2021/07/11 04:25:41;;;;;;;5.23;3.63;;;;;;;27.88;49.59;100768.28;128416;1087;64139;-86
2021/07/11 04:28:18;;;;;;;5.23;3.63;;;;;;;27.87;49.77;100767.41;128386;1086;64096;-85
2021/07/11 04:30:44;;;;;;;5.80;3.80;;;;;;;27.87;49.59;100767.41;128382;1086;64230;-85
2021/07/11 04:33:15;;;;;;;5.10;3.87;;;;;;;27.88;49.31;100763.69;128368;1086;64137;-86
2021/07/11 04:35:50;;;;;;;4.40;3.43;;;;;;;27.90;49.36;100774.38;128375;1086;64147;-86
2021/07/11 04:38:20;;;;;;;;;;;;;;;27.89;49.36;100778.09;128391;1087;65414;-85
2021/07/11 04:40:57;;;;;;;5.17;3.40;;;;;;;27.89;49.43;100775.38;128366;1087;64157;-86
2021/07/11 04:43:29;;;;;;;6.10;3.70;;;;;;;27.89;49.41;100784.39;128402;1086;64098;-85
2021/07/11 04:45:58;;;;;;;;;;;;;;;27.89;49.41;100778.09;128416;1085;64112;-86
2021/07/11 04:48:45;;;;;;;4.57;3.50;;;;;;;27.89;49.46;100778.97;128022;1085;63983;-85
2021/07/11 04:51:12;;;;;;;4.57;3.30;;;;;;;27.92;49.49;100777.81;128405;1085;64313;-86
2021/07/11 04:53:38;;;;;;;5.13;3.43;;;;;;;27.92;49.63;100777.81;128385;1085;64128;-85
2021/07/11 04:56:10;;;;;;;5.50;3.40;;;;;;;27.94;49.85;100775.77;128416;1085;64166;-86
2021/07/11 04:58:53;;;;;;;4.50;3.30;;;;;;;27.93;49.59;100769.51;128389;1087;64128;-86
2021/07/11 05:01:26;;;;;;;5.37;3.50;;;;;;;27.95;49.79;100772.06;128383;1086;64135;-85
2021/07/11 05:03:58;;;;;;;5.83;3.30;;;;;;;27.96;49.66;100773.77;128374;1086;64093;-85
2021/07/11 05:06:26;;;;;;;4.90;3.07;;;;;;;27.97;49.71;100769.19;128413;1087;64135;-85
2021/07/11 05:09:06;;;;;;;4.13;3.30;;;;;;;27.99;49.89;100769.89;128386;1087;64141;-85
2021/07/11 05:11:32;;;;;;;4.60;3.45;;;;;;;28.00;49.68;100771.61;128353;1087;64317;-86
2021/07/11 05:13:59;;;;;;;4.93;3.37;;;;;;;27.99;49.90;100773.45;128368;1086;64155;-86
2021/07/11 05:16:31;;;;;;;4.30;3.30;;;;;;;28.01;49.73;100773.32;128373;1086;64097;-85
2021/07/11 05:19:02;;;;;;;5.10;3.47;;;;;;;28.01;49.87;100768.77;128381;1087;64270;-87
2021/07/11 05:21:29;;;;;;;5.07;3.20;;;;;;;28.02;49.78;100780.46;128359;1087;64165;-85
2021/07/11 05:24:03;;;;;;;4.40;3.30;;;;;;;28.04;49.81;100775.74;128370;1087;64099;-85
2021/07/11 05:26:40;;;;;;;4.60;3.30;;;;;;;28.04;49.81;100778.45;128386;1087;64211;-86
2021/07/11 05:29:09;;;;;;;4.87;3.50;;;;;;;28.05;50.01;100775.58;128371;1087;64240;-85
2021/07/11 05:31:39;;;;;;;4.37;3.20;;;;;;;28.05;49.67;100780.14;128379;1085;64231;-85
2021/07/11 05:34:14;;;;;;;5.67;3.40;;;;;;;28.06;49.92;100771.87;128366;1087;64108;-86
2021/07/11 05:36:44;;;;;;;4.47;3.33;;;;;;;28.06;49.84;100777.30;128384;1086;64640;-86
2021/07/11 05:39:11;;;;;;;4.30;3.40;;;;;;;28.08;49.73;100779.84;128369;1086;64288;-86
2021/07/11 05:41:47;;;;;;;4.87;3.37;;;;;;;28.08;49.75;100779.84;128280;1087;64147;-86
2021/07/11 05:44:14;;;;;;;4.87;3.27;;;;;;;28.09;49.63;100776.09;128368;1087;64234;-86
2021/07/11 05:46:41;;;;;;;4.47;3.20;;;;;;;28.11;49.68;100773.26;128399;1087;64402;-85
2021/07/11 05:49:22;;;;;;;5.17;3.63;;;;;;;28.11;49.77;100776.81;128389;1087;64096;-85
2021/07/11 05:51:57;;;;;;;4.50;3.37;;;;;;;28.13;49.94;100779.36;128368;1087;64103;-84
2021/07/11 05:54:24;;;;;;;4.53;3.40;;;;;;;28.13;49.84;100777.52;128344;1087;64237;-84
2021/07/11 05:57:05;;;;;;;5.33;3.60;;;;;;;28.14;49.70;100781.91;128393;1087;64152;-84
2021/07/11 05:59:33;;;;;;;4.80;3.50;;;;;;;28.16;49.74;100779.91;128375;1087;64125;-86
2021/07/11 06:02:05;;;;;;;5.00;3.40;;;;;;;28.17;49.85;100786.17;128370;1087;64096;-86
2021/07/11 06:04:40;;;;;;;4.63;3.40;;;;;;;28.17;49.87;100784.34;128393;1087;64268;-86
2021/07/11 06:07:09;;;;;;;4.97;3.40;;;;;;;28.18;49.92;100785.17;128405;1087;64260;-86
2021/07/11 06:09:36;;;;;;;4.90;3.27;;;;;;;28.19;49.68;100787.73;128379;1085;64463;-87
2021/07/11 06:12:15;;;;;;;;;;;;;;;;;;;;;
2021/07/11 06:14:45;;;;;;;5.40;3.17;;;;;;;28.20;49.76;100783.17;128363;1087;64212;-86
2021/07/11 06:17:15;;;;;;;4.10;3.30;;;;;;;28.20;49.75;100767.73;128386;1085;64267;-86
2021/07/11 06:19:42;;;;;;;4.33;3.40;;;;;;;28.21;49.84;100774.87;128347;1085;64278;-85
2021/07/11 06:22:16;;;;;;;5.27;3.50;;;;;;;28.22;49.43;100775.70;128337;1087;64141;-85
2021/07/11 06:24:49;;;;;;;4.37;3.10;;;;;;;28.23;49.88;100780.13;128365;1087;64136;-85
2021/07/11 06:27:23;;;;;;;4.50;3.40;;;;;;;28.23;49.69;100789.11;128400;1087;64170;-86
2021/07/11 06:29:50;;;;;;;4.63;3.50;;;;;;;28.23;49.43;100778.25;128384;1087;64122;-85
2021/07/11 06:32:19;;;;;;;4.30;3.30;;;;;;;28.24;49.48;100779.13;128369;1087;64103;-85
2021/07/11 06:34:49;;;;;;;4.73;3.47;;;;;;;28.24;49.62;100776.41;128368;1085;64237;-86
2021/07/11 06:37:16;;;;;;;4.87;3.37;;;;;;;28.25;49.62;100780.81;128392;1086;64387;-86
2021/07/11 06:39:55;;;;;;;4.17;3.17;;;;;;;28.24;49.89;100766.39;128373;1086;64183;-86
2021/07/11 06:42:21;;;;;;;4.90;3.60;;;;;;;28.25;49.65;100775.38;128357;1086;64313;-86
2021/07/11 06:44:56;;;;;;;5.37;3.43;;;;;;;28.26;49.68;100777.09;128369;1087;64097;-85
2021/07/11 06:47:28;;;;;;;4.90;3.40;;;;;;;28.25;49.78;100773.54;128401;1085;64284;-85
2021/07/11 06:50:03;;;;;;;4.63;3.20;;;;;;;28.26;49.78;100777.96;128394;1087;64281;-85
2021/07/11 06:52:40;;;;;;;;;;;;;;;;;;;;;
2021/07/11 06:55:17;;;;;;;4.67;3.20;;;;;;;28.27;49.57;100773.38;128402;1087;64125;-86
2021/07/11 06:57:44;;;;;;;4.47;3.33;;;;;;;28.27;49.72;100770.66;128411;1087;64125;-86
2021/07/11 07:00:13;;;;;;;4.20;3.27;;;;;;;28.28;49.46;100774.21;128380;1086;64179;-85
2021/07/11 07:02:48;;;;;;;5.40;3.33;;;;;;;28.26;49.67;100777.96;128360;1087;64145;-85
2021/07/11 07:05:15;;;;;;;4.57;3.30;;;;;;;28.28;49.44;100774.21;128386;1085;64366;-86
2021/07/11 07:08:04;;;;;;;5.73;3.47;;;;;;;28.28;49.79;100766.94;128077;1087;64105;-86
2021/07/11 07:10:38;;;;;;;5.47;3.60;;;;;;;28.28;49.60;100772.38;128377;1087;64316;-86
2021/07/11 07:13:04;;;;;;;4.47;3.30;;;;;;;28.29;49.66;100775.92;128361;1087;63230;-85
2021/07/11 07:15:31;;;;;;;4.53;3.47;;;;;;;28.28;49.72;100777.80;128378;1087;64467;-86
2021/07/11 07:18:07;;;;;;;4.50;3.57;;;;;;;28.28;49.35;100774.21;128388;1085;64278;-86
2021/07/11 07:20:33;;;;;;;4.53;3.20;;;;;;;28.28;49.80;100777.80;128373;1087;64153;-86
2021/07/11 07:23:09;;;;;;;4.50;3.27;;;;;;;28.28;49.50;100779.64;128338;1087;64140;-86
2021/07/11 07:25:35;;;;;;;4.43;3.10;;;;;;;28.30;49.49;100774.92;128360;1087;64304;-85
2021/07/11 07:28:02;;;;;;;5.27;3.20;;;;;;;28.29;49.55;100786.78;128399;1086;64342;-85
2021/07/11 07:30:42;;;;;;;4.00;3.17;;;;;;;28.29;49.79;100784.07;128348;1087;64157;-85
2021/07/11 07:33:12;;;;;;;3.97;3.13;;;;;;;28.28;49.51;100777.80;128365;1087;64067;-85
2021/07/11 07:35:46;;;;;;;4.50;3.20;;;;;;;28.29;49.55;100781.36;128410;1087;64096;-86
2021/07/11 07:38:12;;;;;;;5.20;3.10;;;;;;;28.28;49.42;100779.64;128382;1087;64230;-86
2021/07/11 07:40:39;;;;;;;4.23;3.00;;;;;;;28.28;49.47;100779.64;128360;1087;62922;-85
2021/07/11 07:43:09;;;;;;;5.23;3.10;;;;;;;28.29;49.21;100775.92;128363;1087;64444;-85
2021/07/11 07:45:36;;;;;;;4.57;2.97;;;;;;;28.29;49.42;100778.64;128366;1087;64134;-86
2021/07/11 07:48:05;;;;;;;4.80;3.27;;;;;;;28.29;49.15;100786.78;128382;1087;64149;-86
2021/07/11 07:50:31;;;;;;;4.13;3.17;;;;;;;28.29;49.16;100784.07;128413;1086;64161;-85
2021/07/11 07:52:58;;;;;;;4.80;3.40;;;;;;;28.29;49.44;100784.07;128380;1087;64143;-86
2021/07/11 07:55:39;;;;;;;;;;;;;;;;;;;;;
2021/07/11 07:58:16;;;;;;;4.70;3.30;;;;;;;28.28;49.25;100788.66;128347;1087;64161;-86
2021/07/11 08:00:48;;;;;;;5.43;3.30;;;;;;;28.28;49.36;100780.52;128393;1086;64140;-86
2021/07/11 08:03:14;;;;;;;4.60;3.40;;;;;;;28.29;49.19;100778.64;128347;1085;64781;-86
2021/07/11 08:05:42;;;;;;;4.57;3.50;;;;;;;28.29;49.21;100784.07;128394;1086;64154;-86
2021/07/11 08:08:11;;;;;;;4.65;3.20;;;;;;;28.29;49.20;100782.20;128052;1087;64189;-86
2021/07/11 08:10:49;;;;;;;5.20;3.37;;;;;;;28.29;49.19;100774.05;128053;1087;64108;-85
2021/07/11 08:13:15;;;;;;;5.07;3.50;;;;;;;28.30;49.19;100780.35;128364;1087;64393;-86
2021/07/11 08:15:50;;;;;;;5.50;3.57;;;;;;;28.30;49.49;100780.35;128381;1087;64140;-85
2021/07/11 08:18:17;;;;;;;4.05;3.20;;;;;;;28.30;49.15;100774.92;128406;1087;64285;-85
2021/07/11 08:20:52;;;;;;;7.20;3.30;;;;;;;28.30;49.10;100774.92;128399;1086;64165;-86
2021/07/11 08:23:27;;;;;;;4.77;3.60;;;;;;;28.29;49.44;100779.48;128337;1087;64176;-85
2021/07/11 08:25:54;;;;;;;4.40;3.20;;;;;;;28.30;49.28;100783.91;128360;1086;64154;-86
2021/07/11 08:28:29;;;;;;;4.90;3.33;;;;;;;28.30;49.24;100777.64;128378;1085;64211;-85
2021/07/11 08:31:17;;;;;;;4.35;3.28;;;;;;;28.30;49.55;100785.78;128367;1086;64099;-86
2021/07/11 08:33:44;;;;;;;4.37;3.47;;;;;;;28.30;49.45;100778.48;128390;1087;64073;-86
2021/07/11 08:36:13;;;;;;;4.50;3.57;;;;;;;28.30;49.04;100783.06;128439;1087;64206;-85
2021/07/11 08:38:44;;;;;;;4.77;3.30;;;;;;;28.31;49.24;100782.06;128039;1087;64201;-86
2021/07/11 08:41:23;;;;;;;4.90;3.17;;;;;;;28.30;49.18;100770.33;128283;1085;64055;-85
2021/07/11 08:43:53;;;;;;;4.50;3.47;;;;;;;28.30;49.20;100778.48;128254;1086;64141;-85
2021/07/11 08:46:20;;;;;;;5.13;3.53;;;;;;;28.31;49.27;100774.77;128282;1087;64282;-86
2021/07/11 08:48:51;;;;;;;4.70;3.57;;;;;;;28.31;49.33;100768.49;128299;1085;64239;-85
2021/07/11 08:51:17;;;;;;;6.03;3.73;;;;;;;28.32;49.35;100772.89;128238;1084;64160;-85
2021/07/11 08:53:46;;;;;;;5.10;3.40;;;;;;;28.31;49.14;100769.33;128339;1086;64278;-86
2021/07/11 08:56:25;;;;;;;4.60;3.35;;;;;;;28.32;49.04;100765.61;128360;1085;64143;-85
2021/07/11 08:59:22;;;;;;;4.10;3.37;;;;;;;28.31;49.03;100766.62;128389;1087;64142;-86
2021/07/11 09:02:12;;;;;;;4.77;3.77;;;;;;;28.32;49.39;100764.74;128395;1087;64102;-85
2021/07/11 09:04:46;;;;;;;3.87;3.40;;;;;;;28.31;48.88;100755.76;128375;1085;64141;-85
2021/07/11 09:07:32;;;;;;;4.07;3.13;;;;;;;28.33;48.96;100752.88;128387;1086;64113;-85
2021/07/11 09:10:09;;;;;;;5.20;3.47;;;;;;;28.32;49.18;100756.59;128404;1087;64573;-86
2021/07/11 09:12:35;;;;;;;4.70;3.40;;;;;;;28.31;49.04;100758.47;128379;1087;64221;-85
2021/07/11 09:15:11;;;;;;;4.80;3.37;;;;;;;28.31;49.02;100761.19;128370;1087;64131;-86
2021/07/11 09:17:37;;;;;;;4.60;3.67;;;;;;;28.33;48.91;100758.31;128383;1086;64230;-85
2021/07/11 09:20:06;;;;;;;6.30;3.50;;;;;;;28.32;49.24;100762.90;128355;1087;64114;-85
2021/07/11 09:22:35;;;;;;;4.50;3.50;;;;;;;28.32;48.92;100757.47;128393;1087;64185;-86
2021/07/11 09:25:12;;;;;;;;;;;;;;;;;;;;;
2021/07/11 09:27:40;;;;;;;4.23;3.40;;;;;;;28.32;48.99;100756.59;128398;1087;64760;-85
2021/07/11 09:30:10;;;;;;;4.37;3.50;;;;;;;28.32;49.08;100754.75;128421;1086;64217;-85
2021/07/11 09:32:37;;;;;;;3.97;3.13;;;;;;;28.31;49.08;100753.05;128373;1087;64133;-85
2021/07/11 09:35:14;;;;;;;4.33;3.30;;;;;;;28.32;48.97;100756.59;128373;1086;64198;-85
2021/07/11 09:37:48;;;;;;;4.33;3.30;;;;;;;28.31;49.32;100755.76;128348;1087;64217;-86
2021/07/11 09:40:18;;;;;;;4.83;3.30;;;;;;;28.31;49.02;100755.76;128361;1087;64671;-86
2021/07/11 09:42:46;;;;;;;5.20;3.40;;;;;;;28.30;49.03;100754.05;128356;1087;64133;-85
2021/07/11 09:45:18;;;;;;;4.23;3.20;;;;;;;28.31;49.13;100752.20;128427;1087;64121;-85
2021/07/11 09:47:46;;;;;;;4.17;3.40;;;;;;;28.30;49.09;100750.49;128029;1087;64141;-85
2021/07/11 09:50:18;;;;;;;3.90;3.30;;;;;;;28.30;49.04;100755.92;128398;1087;64099;-85
2021/07/11 09:52:45;;;;;;;4.97;3.50;;;;;;;28.30;49.12;100754.05;128396;1087;64159;-85
2021/07/11 09:55:25;;;;;;;4.67;3.40;;;;;;;28.30;48.87;100745.91;128365;1086;64227;-86
2021/07/11 09:57:56;;;;;;;4.27;3.50;;;;;;;28.29;49.04;100746.91;128413;1087;64282;-86
2021/07/11 10:00:29;;;;;;;3.97;3.20;;;;;;;28.29;49.15;100741.48;128379;1087;64114;-86
2021/07/11 10:03:36;;;;;;;4.50;3.30;;;;;;;28.29;48.94;100733.33;128389;1087;64144;-86
2021/07/11 10:06:05;;;;;;;4.77;3.37;;;;;;;28.29;48.89;100736.05;128357;1087;64288;-85
2021/07/11 10:08:40;;;;;;;4.77;3.70;;;;;;;28.29;48.84;100738.77;128364;1087;64253;-84
2021/07/11 10:11:08;;;;;;;5.20;3.50;;;;;;;28.29;48.75;100730.63;128402;1086;64260;-85
2021/07/11 10:13:35;;;;;;;4.55;3.70;;;;;;;28.29;48.88;100730.63;128377;1087;64109;-85
2021/07/11 10:16:08;;;;;;;5.40;3.63;;;;;;;28.29;49.10;100725.19;128334;1087;64144;-85
2021/07/11 10:18:42;;;;;;;5.10;3.50;;;;;;;28.28;49.13;100723.52;128397;1087;64304;-85
2021/07/11 10:21:10;;;;;;;4.20;3.40;;;;;;;28.29;48.80;100727.91;128380;1086;64214;-85
2021/07/11 10:24:02;;;;;;;4.50;3.43;;;;;;;28.29;48.81;100721.64;128396;1087;64143;-85
2021/07/11 10:26:39;;;;;;;5.10;3.33;;;;;;;28.28;48.88;100718.09;128355;1086;64285;-85
2021/07/11 10:29:20;;;;;;;5.30;3.40;;;;;;;28.29;48.65;100721.64;128389;1087;64121;-86
2021/07/11 10:31:57;;;;;;;5.00;3.50;;;;;;;28.27;49.02;100713.66;128371;1087;64159;-86
2021/07/11 10:34:34;;;;;;;4.13;3.48;;;;;;;28.28;49.50;100722.64;128392;1087;64234;-85
2021/07/11 10:37:26;;;;;;;;;;;;;;;;;;;;;
2021/07/11 10:40:08;;;;;;;5.13;3.67;;;;;;;28.28;48.98;100718.09;128336;1087;64316;-86
2021/07/11 10:42:37;;;;;;;4.63;3.50;;;;;;;28.28;48.81;100711.78;128362;1086;64181;-85
2021/07/11 10:45:09;;;;;;;4.70;3.67;;;;;;;28.28;48.90;100700.92;128366;1087;64103;-85
2021/07/11 10:47:40;;;;;;;4.97;3.47;;;;;;;28.28;49.06;100699.09;128385;1087;64244;-84
2021/07/11 10:50:27;;;;;;;4.87;3.57;;;;;;;28.28;48.85;100690.07;128411;1085;64281;-85
2021/07/11 10:52:54;;;;;;;4.63;3.40;;;;;;;28.28;49.04;100687.36;128398;1087;64125;-86
2021/07/11 10:55:29;;;;;;;4.90;3.50;;;;;;;28.29;48.76;100686.34;128389;1087;64112;-84
2021/07/11 10:57:55;;;;;;;5.17;3.50;;;;;;;28.29;48.93;100675.49;128354;1087;64119;-86
2021/07/11 11:00:28;;;;;;;4.27;3.47;;;;;;;28.28;48.83;100679.22;128356;1085;64283;-86
2021/07/11 11:02:59;;;;;;;4.50;3.50;;;;;;;28.29;48.88;100673.62;128402;1087;64042;-85
2021/07/11 11:05:26;;;;;;;3.97;3.20;;;;;;;28.30;48.53;100669.06;128305;1085;64140;-85
2021/07/11 11:08:10;;;;;;;4.90;3.80;;;;;;;28.30;48.75;100666.34;128223;1086;64150;-85
2021/07/11 11:10:37;;;;;;;4.97;3.70;;;;;;;28.29;48.54;100668.19;128249;1087;64193;-85
2021/07/11 11:13:09;;;;;;;4.77;3.53;;;;;;;28.29;49.10;100660.05;128304;1087;64131;-85
2021/07/11 11:15:44;;;;;;;4.83;3.53;;;;;;;28.30;48.73;100655.48;128220;1087;64131;-83
2021/07/11 11:18:46;;;;;;;4.47;3.57;;;;;;;28.31;49.00;100640.91;128290;1087;64108;-84
2021/07/11 11:21:27;;;;;;;4.13;3.47;;;;;;;28.30;48.88;100644.63;127894;1089;64259;-85
2021/07/11 11:24:05;;;;;;;4.10;3.50;;;;;;;28.31;48.95;100643.63;127910;1088;64129;-85
2021/07/11 11:26:34;;;;;;;5.43;3.60;;;;;;;28.30;48.63;100642.76;127894;1089;64242;-85
2021/07/11 11:29:16;;;;;;;5.20;3.60;;;;;;;28.29;48.67;100635.62;127926;1090;64254;-85
2021/07/11 11:31:51;;;;;;;;;;;;;;;28.29;48.79;100630.19;127951;1090;64240;-85
2021/07/11 11:34:26;;;;;;;5.10;3.60;;;;;;;28.29;48.98;100626.63;127923;1090;64296;-85
2021/07/11 11:37:00;;;;;;;4.70;3.35;;;;;;;28.29;48.84;100623.92;127929;1090;64144;-85
2021/07/11 11:39:28;;;;;;;4.80;3.70;;;;;;;28.28;48.94;100614.94;127806;1090;64163;-84
2021/07/11 11:41:54;;;;;;;;;;;;;;;28.27;48.59;100618.66;127836;1090;64195;-85
2021/07/11 11:44:28;;;;;;;4.33;3.43;;;;;;;28.27;48.83;100615.95;127860;1089;64144;-85
2021/07/11 11:47:00;;;;;;;5.43;3.60;;;;;;;28.26;48.79;100614.23;127805;1090;64115;-84
2021/07/11 11:49:31;;;;;;;4.10;3.20;;;;;;;28.26;48.65;100612.39;127861;1090;64277;-86
2021/07/11 11:51:59;;;;;;;4.90;3.37;;;;;;;28.26;48.56;100606.97;127951;1090;64294;-86
2021/07/11 11:54:37;;;;;;;5.20;3.55;;;;;;;28.27;48.66;100605.09;127962;1090;64102;-85